createdAt,value
2023-02-19T00:01:45.730Z,89.38
2023-02-19T00:04:21.852Z,88.00
2023-02-19T00:06:49.602Z,84.50
2023-02-19T00:09:18.194Z,89.78
2023-02-19T00:11:46.454Z,90.68
2023-02-19T00:14:18.995Z,90.97
2023-02-19T00:16:46.150Z,92.35
2023-02-19T00:19:15.892Z,95.60
2023-02-19T00:21:43.236Z,95.75
2023-02-19T00:24:11.944Z,94.28
2023-02-19T00:26:40.850Z,99.68
2023-02-19T00:29:12.256Z,100.40
2023-02-19T00:31:40.300Z,96.78
2023-02-19T00:34:07.710Z,97.50
2023-02-19T00:36:37.755Z,96.30
2023-02-19T00:39:06.181Z,96.07
2023-02-19T00:41:33.547Z,94.90
2023-02-19T00:44:07.086Z,97.03
2023-02-19T00:46:39.113Z,97.95
2023-02-19T00:49:07.710Z,97.57
2023-02-19T00:51:38.081Z,96.07
2023-02-19T00:54:06.356Z,95.47
2023-02-19T00:56:33.568Z,95.38
2023-02-19T00:59:00.518Z,99.25
2023-02-19T01:01:27.696Z,101.70
2023-02-19T01:03:54.640Z,97.82
2023-02-19T01:06:22.376Z,97.88
2023-02-19T01:08:50.020Z,99.80
2023-02-19T01:11:18.571Z,97.57
2023-02-19T01:13:45.579Z,95.30
2023-02-19T01:16:22.216Z,96.65
2023-02-19T01:18:49.432Z,98.72
2023-02-19T01:21:21.791Z,95.78
2023-02-19T01:23:53.989Z,95.75
2023-02-19T01:26:23.418Z,94.78
2023-02-19T01:28:50.427Z,97.07
2023-02-19T01:31:23.037Z,100.07
2023-02-19T01:33:56.238Z,99.95
2023-02-19T01:36:23.940Z,97.63
2023-02-19T01:38:50.860Z,100.00
2023-02-19T01:41:21.905Z,97.65
2023-02-19T01:44:04.086Z,96.05
2023-02-19T01:46:33.002Z,96.57
2023-02-19T01:49:06.127Z,96.47
2023-02-19T01:51:35.529Z,97.90
2023-02-19T01:54:06.044Z,97.32
2023-02-19T01:56:35.867Z,97.10
2023-02-19T01:59:04.029Z,96.07
2023-02-19T02:01:31.633Z,97.32
2023-02-19T02:03:58.977Z,97.32
2023-02-19T02:06:38.131Z,99.28
2023-02-19T02:09:23.772Z,93.95
2023-02-19T02:11:52.851Z,97.82
2023-02-19T02:14:25.691Z,95.38
2023-02-19T02:17:04.342Z,97.50
2023-02-19T02:19:40.330Z,96.28
2023-02-19T02:22:21.198Z,95.07
2023-02-19T02:25:26.865Z,97.72
2023-02-19T02:28:29.943Z,94.57
2023-02-19T02:31:25.592Z,94.68
2023-02-19T02:34:07.109Z,98.68
2023-02-19T02:36:38.063Z,94.00
2023-02-19T02:39:10.293Z,93.47
2023-02-19T02:41:49.178Z,99.43
2023-02-19T02:44:16.430Z,96.82
2023-02-19T02:46:46.322Z,94.78
2023-02-19T02:49:21.769Z,98.65
2023-02-19T02:51:53.898Z,85.68
2023-02-19T02:54:50.965Z,88.78
2023-02-19T02:57:20.224Z,90.47
2023-02-19T02:59:51.999Z,91.97
2023-02-19T03:02:26.282Z,100.88
2023-02-19T03:05:33.588Z,104.70
2023-02-19T03:08:07.559Z,98.10
2023-02-19T03:10:44.565Z,106.07
2023-02-19T03:13:35.207Z,102.63
2023-02-19T03:16:30.915Z,103.75
2023-02-19T03:19:19.167Z,108.57
2023-02-19T03:22:00.822Z,110.32
2023-02-19T03:24:51.145Z,107.20
2023-02-19T03:27:20.587Z,108.72
2023-02-19T03:29:57.044Z,110.18
2023-02-19T03:32:44.475Z,108.60
2023-02-19T03:35:18.954Z,107.60
2023-02-19T03:37:57.375Z,107.85
2023-02-19T03:40:28.427Z,107.43
2023-02-19T03:43:15.574Z,107.40
2023-02-19T03:45:48.812Z,104.07
2023-02-19T03:48:35.111Z,108.03
2023-02-19T03:51:22.447Z,105.38
2023-02-19T03:54:07.991Z,106.38
2023-02-19T03:56:43.214Z,104.28
2023-02-19T03:59:22.633Z,99.78
2023-02-19T04:01:56.169Z,106.65
2023-02-19T04:04:30.436Z,105.78
2023-02-19T04:06:58.995Z,104.15
2023-02-19T04:09:44.510Z,103.63
2023-02-19T04:12:18.842Z,105.95
2023-02-19T04:15:02.676Z,104.00
2023-02-19T04:17:39.033Z,101.60
2023-02-19T04:20:10.037Z,100.07
2023-02-19T04:22:38.557Z,100.47
2023-02-19T04:25:05.854Z,98.15
2023-02-19T04:27:35.542Z,101.63
2023-02-19T04:30:02.646Z,101.43
2023-02-19T04:32:29.594Z,101.97
2023-02-19T04:34:56.532Z,99.90
2023-02-19T04:37:23.527Z,103.32
2023-02-19T04:39:50.421Z,102.32
2023-02-19T04:42:17.286Z,104.53
2023-02-19T04:44:44.294Z,106.22
2023-02-19T04:47:11.202Z,103.97
2023-02-19T04:49:38.137Z,104.43
2023-02-19T04:52:05.084Z,104.50
2023-02-19T04:54:32.024Z,101.63
2023-02-19T04:56:58.943Z,107.00
2023-02-19T04:59:25.937Z,103.45
2023-02-19T05:01:52.954Z,105.07
2023-02-19T05:04:19.951Z,107.47
2023-02-19T05:06:46.859Z,108.50
2023-02-19T05:09:13.731Z,107.13
2023-02-19T05:11:40.740Z,108.75
2023-02-19T05:14:07.664Z,110.85
2023-02-19T05:16:34.784Z,108.68
2023-02-19T05:19:01.744Z,110.40
2023-02-19T05:21:28.642Z,107.53
2023-02-19T05:23:55.703Z,106.90
2023-02-19T05:26:24.200Z,107.38
2023-02-19T05:28:53.276Z,108.93
2023-02-19T05:31:21.411Z,103.75
2023-02-19T05:33:51.334Z,104.85
2023-02-19T05:36:20.422Z,103.20
2023-02-19T05:38:48.175Z,107.45
2023-02-19T05:41:17.241Z,102.65
2023-02-19T05:43:46.346Z,104.95
2023-02-19T05:46:16.318Z,108.20
2023-02-19T05:48:43.486Z,104.40
2023-02-19T05:51:13.566Z,103.57
2023-02-19T05:53:41.427Z,109.45
2023-02-19T05:56:39.897Z,107.65
2023-02-19T05:59:24.814Z,111.50
2023-02-19T06:01:53.778Z,112.47
2023-02-19T06:04:20.892Z,109.03
2023-02-19T06:06:48.460Z,111.93
2023-02-19T06:09:15.441Z,112.05
2023-02-19T06:11:43.694Z,107.78
2023-02-19T06:14:13.611Z,107.55
2023-02-19T06:16:40.892Z,110.45
2023-02-19T06:19:07.855Z,109.28
2023-02-19T06:21:35.034Z,106.03
2023-02-19T06:24:07.322Z,109.35
2023-02-19T06:26:34.665Z,110.35
2023-02-19T06:29:01.615Z,116.28
2023-02-19T06:31:28.711Z,111.35
2023-02-19T06:33:55.736Z,112.40
2023-02-19T06:36:23.437Z,110.35
2023-02-19T06:38:50.758Z,110.05
2023-02-19T06:41:18.201Z,111.38
2023-02-19T06:43:46.652Z,109.68
2023-02-19T06:46:14.469Z,111.05
2023-02-19T06:48:43.813Z,112.93
2023-02-19T06:51:18.700Z,114.43
2023-02-19T06:53:46.131Z,112.45
2023-02-19T06:56:28.680Z,114.03
2023-02-19T06:59:00.732Z,117.97
2023-02-19T07:01:29.428Z,112.60
2023-02-19T07:03:56.561Z,119.40
2023-02-19T07:06:25.501Z,115.00
2023-02-19T07:08:54.439Z,117.65
2023-02-19T07:11:21.513Z,117.22
2023-02-19T07:13:48.587Z,111.85
2023-02-19T07:16:17.904Z,109.07
2023-02-19T07:18:45.207Z,114.15
2023-02-19T07:21:13.961Z,109.40
2023-02-19T07:23:42.209Z,111.47
2023-02-19T07:26:13.765Z,111.97
2023-02-19T07:28:45.766Z,113.65
2023-02-19T07:31:13.947Z,116.82
2023-02-19T07:33:46.833Z,116.90
2023-02-19T07:36:16.605Z,112.32
2023-02-19T07:38:43.705Z,117.57
2023-02-19T07:41:11.359Z,115.22
2023-02-19T07:43:38.918Z,115.18
2023-02-19T07:46:08.284Z,117.63
2023-02-19T07:48:36.773Z,115.45
2023-02-19T07:51:05.237Z,111.75
2023-02-19T07:53:34.322Z,113.38
2023-02-19T07:56:06.665Z,111.05
2023-02-19T07:58:34.423Z,112.45
2023-02-19T08:01:40.680Z,108.93
2023-02-19T08:04:07.742Z,116.72
2023-02-19T08:06:34.719Z,111.82
2023-02-19T08:09:01.644Z,113.47
2023-02-19T08:11:47.247Z,115.88
2023-02-19T08:14:14.181Z,119.22
2023-02-19T08:16:47.961Z,119.07
2023-02-19T08:21:41.711Z,121.22
2023-02-19T08:24:08.689Z,114.63
2023-02-19T08:26:36.270Z,117.97
2023-02-19T08:29:04.705Z,114.93
2023-02-19T08:31:32.911Z,115.93
2023-02-19T08:34:00.108Z,115.63
2023-02-19T08:36:27.470Z,114.18
2023-02-19T08:38:54.431Z,118.93
2023-02-19T08:41:21.798Z,121.70
2023-02-19T08:43:49.113Z,109.90
2023-02-19T08:46:16.572Z,109.03
2023-02-19T08:48:43.542Z,110.80
2023-02-19T08:51:12.310Z,111.38
2023-02-19T08:53:40.779Z,116.45
2023-02-19T08:56:09.957Z,114.53
2023-02-19T08:58:37.598Z,109.50
2023-02-19T09:01:09.855Z,106.97
2023-02-19T09:03:37.317Z,109.95
2023-02-19T09:06:04.653Z,107.10
2023-02-19T09:08:31.621Z,104.18
2023-02-19T09:11:03.501Z,104.20
2023-02-19T09:13:30.950Z,100.28
2023-02-19T09:15:57.954Z,101.70
2023-02-19T09:18:25.924Z,101.80
2023-02-19T09:20:53.157Z,103.30
2023-02-19T09:23:20.299Z,101.63
2023-02-19T09:25:47.349Z,102.70
2023-02-19T09:28:14.385Z,101.57
2023-02-19T09:30:41.327Z,100.03
2023-02-19T09:33:08.255Z,101.22
2023-02-19T09:35:38.363Z,99.60
2023-02-19T09:38:05.288Z,99.78
2023-02-19T09:40:32.264Z,101.32
2023-02-19T09:43:01.580Z,100.10
2023-02-19T09:45:29.243Z,100.03
2023-02-19T09:47:58.298Z,99.25
2023-02-19T09:50:45.767Z,96.35
2023-02-19T09:53:20.272Z,97.13
2023-02-19T09:55:47.637Z,99.78
2023-02-19T09:58:36.225Z,100.85
2023-02-19T10:01:05.965Z,98.57
2023-02-19T10:03:39.163Z,102.50
2023-02-19T10:06:11.551Z,104.55
2023-02-19T10:08:40.321Z,99.72
2023-02-19T10:11:11.624Z,103.15
2023-02-19T10:13:52.994Z,103.07
2023-02-19T10:16:25.443Z,101.90
2023-02-19T10:18:53.030Z,102.97
2023-02-19T10:21:24.024Z,104.47
2023-02-19T10:24:00.965Z,103.30
2023-02-19T10:26:28.003Z,103.85
2023-02-19T10:28:55.831Z,103.47
2023-02-19T10:31:25.584Z,110.32
2023-02-19T10:33:58.003Z,108.07
2023-02-19T10:36:31.637Z,105.68
2023-02-19T10:39:02.037Z,102.43
2023-02-19T10:41:29.635Z,103.40
2023-02-19T10:44:10.064Z,107.00
2023-02-19T10:46:44.430Z,106.32
2023-02-19T10:49:32.213Z,108.40
2023-02-19T10:52:10.608Z,105.82
2023-02-19T10:54:37.681Z,105.22
2023-02-19T10:57:19.719Z,105.80
2023-02-19T11:00:15.608Z,107.18
2023-02-19T11:02:45.916Z,103.13
2023-02-19T11:05:17.089Z,103.20
2023-02-19T11:07:55.950Z,105.90
2023-02-19T11:10:28.267Z,103.32
2023-02-19T11:12:59.115Z,103.60
2023-02-19T11:15:32.706Z,104.65
2023-02-19T11:18:02.723Z,105.50
2023-02-19T11:20:29.949Z,102.53
2023-02-19T11:23:07.211Z,103.45
2023-02-19T11:25:34.297Z,100.90
2023-02-19T11:28:07.012Z,102.55
2023-02-19T11:30:43.012Z,100.38
2023-02-19T11:33:28.396Z,99.93
2023-02-19T11:36:19.464Z,98.65
2023-02-19T11:38:46.517Z,98.30
2023-02-19T11:41:28.266Z,96.28
2023-02-19T11:44:19.492Z,99.32
2023-02-19T11:47:27.414Z,100.03
2023-02-19T11:50:18.978Z,98.40
2023-02-19T11:53:27.906Z,93.05
2023-02-19T11:56:19.311Z,94.88
2023-02-19T11:58:55.210Z,96.85
2023-02-19T12:01:49.661Z,95.80
2023-02-19T12:04:46.121Z,94.40
2023-02-19T12:07:31.707Z,95.43
2023-02-19T12:10:07.316Z,93.22
2023-02-19T12:12:36.157Z,92.25
2023-02-19T12:15:41.339Z,94.50
2023-02-19T12:18:19.659Z,93.68
2023-02-19T12:21:23.508Z,94.85
2023-02-19T12:24:22.150Z,93.85
2023-02-19T12:27:22.782Z,99.20
2023-02-19T12:30:18.638Z,93.45
2023-02-19T12:32:57.276Z,94.78
2023-02-19T12:35:27.019Z,96.43
2023-02-19T12:38:25.254Z,98.38
2023-02-19T12:41:11.777Z,98.50
2023-02-19T12:43:41.987Z,95.97
2023-02-19T12:46:14.212Z,95.10
2023-02-19T12:48:53.367Z,93.68
2023-02-19T12:51:23.734Z,95.00
2023-02-19T12:54:06.426Z,96.75
2023-02-19T12:56:36.407Z,95.32
2023-02-19T12:59:26.518Z,92.53
2023-02-19T13:02:07.684Z,96.65
2023-02-19T13:04:52.702Z,93.18
2023-02-19T13:07:57.010Z,90.13
2023-02-19T13:10:32.385Z,93.15
2023-02-19T13:13:05.530Z,93.43
2023-02-19T13:15:42.495Z,92.70
2023-02-19T13:18:18.881Z,93.53
2023-02-19T13:20:47.882Z,89.70
2023-02-19T13:23:36.637Z,90.18
2023-02-19T13:26:23.422Z,93.88
2023-02-19T13:29:18.024Z,86.90
2023-02-19T13:32:12.953Z,84.88
2023-02-19T13:35:05.526Z,89.40
2023-02-19T13:37:34.589Z,87.18
2023-02-19T13:40:25.321Z,83.03
2023-02-19T13:42:57.579Z,85.88
2023-02-19T13:45:32.863Z,85.95
2023-02-19T13:48:13.017Z,88.57
2023-02-19T13:50:40.221Z,85.68
2023-02-19T13:53:50.375Z,85.22
2023-02-19T13:56:34.114Z,81.85
2023-02-19T14:02:08.983Z,81.50
2023-02-19T14:05:00.045Z,82.20
2023-02-19T14:07:27.008Z,78.55
2023-02-19T14:09:54.985Z,84.22
2023-02-19T14:12:30.599Z,83.20
2023-02-19T14:14:57.980Z,81.32
2023-02-19T14:17:47.678Z,79.57
2023-02-19T14:20:17.399Z,80.82
2023-02-19T14:22:47.543Z,82.00
2023-02-19T14:25:38.297Z,79.07
2023-02-19T14:28:21.316Z,81.03
2023-02-19T14:33:24.767Z,81.88
2023-02-19T14:35:56.614Z,78.43
2023-02-19T14:38:28.981Z,79.33
2023-02-19T14:40:56.342Z,80.95
2023-02-19T14:43:25.862Z,81.47
2023-02-19T14:45:59.947Z,79.25
2023-02-19T14:48:33.003Z,81.75
2023-02-19T14:51:06.907Z,80.10
2023-02-19T14:53:41.751Z,81.07
2023-02-19T14:56:23.205Z,80.63
2023-02-19T14:59:26.910Z,83.65
2023-02-19T15:01:55.897Z,83.87
2023-02-19T15:04:29.880Z,79.30
2023-02-19T15:06:59.646Z,83.63
2023-02-19T15:09:37.622Z,76.03
2023-02-19T15:12:05.494Z,80.72
2023-02-19T15:14:33.778Z,80.38
2023-02-19T15:17:04.798Z,84.13
2023-02-19T15:19:35.390Z,82.47
2023-02-19T15:22:03.012Z,85.90
2023-02-19T15:24:30.396Z,81.65
2023-02-19T15:26:57.694Z,83.60
2023-02-19T15:29:27.729Z,86.05
2023-02-19T15:31:57.448Z,86.50
2023-02-19T15:34:27.477Z,84.53
2023-02-19T15:37:00.650Z,87.07
2023-02-19T15:39:39.015Z,87.47
2023-02-19T15:42:08.320Z,88.97
2023-02-19T15:44:43.960Z,84.80
2023-02-19T15:47:35.741Z,86.55
2023-02-19T15:50:25.784Z,88.75
2023-02-19T15:53:09.419Z,86.75
2023-02-19T15:55:40.619Z,90.03
2023-02-19T15:58:16.413Z,91.28
2023-02-19T16:00:52.061Z,88.13
2023-02-19T16:03:22.078Z,87.53
2023-02-19T16:06:01.567Z,89.75
2023-02-19T16:08:37.159Z,90.03
2023-02-19T16:11:23.054Z,93.03
2023-02-19T16:13:51.636Z,92.55
2023-02-19T16:16:26.620Z,97.80
2023-02-19T16:18:54.128Z,93.55
2023-02-19T16:21:24.365Z,93.35
2023-02-19T16:23:59.320Z,95.20
2023-02-19T16:26:26.529Z,96.95
2023-02-19T16:28:54.403Z,93.97
2023-02-19T16:31:24.373Z,90.55
2023-02-19T16:33:51.593Z,92.28
2023-02-19T16:36:41.813Z,92.65
2023-02-19T16:39:09.140Z,93.00
2023-02-19T16:41:48.654Z,90.40
2023-02-19T16:44:22.180Z,87.95
2023-02-19T16:46:50.818Z,91.20
2023-02-19T16:49:18.629Z,89.15
2023-02-19T16:51:46.906Z,89.60
2023-02-19T16:54:14.118Z,87.45
2023-02-19T16:56:41.311Z,89.13
2023-02-19T16:59:08.550Z,89.30
2023-02-19T17:01:38.875Z,90.80
2023-02-19T17:04:11.723Z,89.03
2023-02-19T17:06:39.463Z,91.63
2023-02-19T17:09:08.449Z,90.63
2023-02-19T17:11:36.166Z,91.22
2023-02-19T17:14:03.335Z,89.63
2023-02-19T17:16:39.572Z,89.57
2023-02-19T17:19:13.334Z,86.93
2023-02-19T17:21:40.928Z,86.38
2023-02-19T17:24:08.060Z,86.97
2023-02-19T17:26:35.046Z,90.53
2023-02-19T17:29:05.259Z,85.03
2023-02-19T17:31:32.842Z,85.18
2023-02-19T17:33:59.857Z,87.43
2023-02-19T17:36:32.332Z,86.20
2023-02-19T17:39:00.599Z,90.25
2023-02-19T17:41:28.009Z,87.65
2023-02-19T17:43:55.153Z,90.82
2023-02-19T17:46:25.053Z,87.75
2023-02-19T17:48:52.725Z,93.22
2023-02-19T17:51:20.051Z,93.03
2023-02-19T17:53:46.990Z,94.60
2023-02-19T17:56:19.872Z,91.78
2023-02-19T17:58:47.362Z,90.70
2023-02-19T18:01:15.250Z,92.95
2023-02-19T18:03:43.540Z,94.00
2023-02-19T18:06:11.660Z,92.30
2023-02-19T18:08:38.651Z,97.40
2023-02-19T18:11:07.233Z,93.25
2023-02-19T18:13:34.231Z,92.50
2023-02-19T18:16:01.535Z,92.88
2023-02-19T18:18:28.575Z,95.30
2023-02-19T18:20:55.629Z,100.20
2023-02-19T18:23:22.580Z,106.22
2023-02-19T18:25:49.511Z,97.80
2023-02-19T18:28:16.773Z,95.03
2023-02-19T18:30:43.919Z,99.82
2023-02-19T18:33:13.314Z,99.78
2023-02-19T18:35:40.358Z,95.22
2023-02-19T18:38:07.403Z,93.50
2023-02-19T18:40:34.474Z,95.05
2023-02-19T18:43:01.477Z,96.80
2023-02-19T18:45:29.685Z,94.47
2023-02-19T18:47:56.631Z,96.68
2023-02-19T18:50:23.573Z,91.95
2023-02-19T18:52:50.467Z,93.05
2023-02-19T18:55:17.498Z,97.60
2023-02-19T18:57:45.329Z,94.47
2023-02-19T19:00:17.397Z,96.60
2023-02-19T19:02:49.664Z,97.32
2023-02-19T19:05:21.295Z,96.93
2023-02-19T19:07:49.515Z,96.57
2023-02-19T19:10:18.153Z,94.95
2023-02-19T19:12:45.137Z,93.50
2023-02-19T19:15:12.100Z,92.78
2023-02-19T19:17:40.483Z,92.53
2023-02-19T19:20:08.331Z,90.18
2023-02-19T19:22:35.386Z,88.93
2023-02-19T19:25:02.356Z,94.32
2023-02-19T19:27:29.324Z,91.22
2023-02-19T19:29:56.400Z,93.18
2023-02-19T19:32:23.412Z,90.57
2023-02-19T19:34:50.575Z,91.15
2023-02-19T19:37:17.509Z,86.30
2023-02-19T19:39:44.494Z,88.65
2023-02-19T19:42:11.514Z,86.15
2023-02-19T19:44:38.660Z,84.07
2023-02-19T19:47:05.785Z,84.75
2023-02-19T19:49:33.423Z,87.18
2023-02-19T19:52:01.307Z,81.75
2023-02-19T19:54:28.692Z,83.35
2023-02-19T19:56:55.660Z,82.35
2023-02-19T19:59:23.190Z,85.05
2023-02-19T20:01:52.585Z,81.78
2023-02-19T20:04:21.539Z,78.85
2023-02-19T20:06:49.145Z,81.03
2023-02-19T20:09:17.045Z,78.25
2023-02-19T20:11:50.736Z,82.20
2023-02-19T20:14:19.495Z,74.70
2023-02-19T20:16:47.658Z,75.57
2023-02-19T20:19:15.682Z,73.60
2023-02-19T20:21:50.637Z,75.32
2023-02-19T20:24:20.833Z,75.25
2023-02-19T20:26:47.805Z,76.82
2023-02-19T20:29:14.722Z,74.13
2023-02-19T20:31:49.194Z,74.68
2023-02-19T20:34:16.441Z,75.60
2023-02-19T20:36:48.855Z,71.63
2023-02-19T20:39:17.337Z,69.95
2023-02-19T20:41:51.921Z,71.88
2023-02-19T20:44:19.340Z,71.60
2023-02-19T20:46:50.996Z,71.80
2023-02-19T20:49:19.777Z,70.30
2023-02-19T20:51:55.125Z,70.38
2023-02-19T20:54:28.602Z,68.55
2023-02-19T20:56:57.721Z,67.63
2023-02-19T20:59:30.461Z,66.82
2023-02-19T21:01:58.592Z,67.78
2023-02-19T21:04:26.122Z,67.65
2023-02-19T21:06:53.088Z,71.28
2023-02-19T21:09:21.385Z,70.65
2023-02-19T21:11:49.098Z,69.97
2023-02-19T21:14:17.067Z,66.50
2023-02-19T21:16:44.683Z,68.97
2023-02-19T21:19:12.025Z,69.43
2023-02-19T21:21:40.506Z,64.88
2023-02-19T21:24:08.843Z,65.35
2023-02-19T21:26:38.716Z,66.55
2023-02-19T21:29:06.918Z,66.68
2023-02-19T21:31:45.297Z,66.97
2023-02-19T21:34:14.406Z,64.70
2023-02-19T21:36:41.565Z,62.55
2023-02-19T21:39:09.790Z,64.97
2023-02-19T21:41:36.826Z,63.55
2023-02-19T21:44:04.256Z,63.65
2023-02-19T21:46:32.966Z,65.10
2023-02-19T21:49:00.613Z,62.47
2023-02-19T21:51:37.511Z,67.28
2023-02-19T21:54:06.371Z,82.15
2023-02-19T21:56:36.366Z,75.78
2023-02-19T21:59:04.199Z,77.35
2023-02-19T22:01:33.840Z,78.07
2023-02-19T22:04:01.069Z,77.45
2023-02-19T22:06:29.973Z,77.38
2023-02-19T22:08:57.935Z,77.30
2023-02-19T22:11:25.652Z,80.75
2023-02-19T22:13:52.922Z,77.35
2023-02-19T22:16:20.512Z,79.30
2023-02-19T22:18:55.877Z,81.10
2023-02-19T22:21:25.050Z,80.10
2023-02-19T22:23:53.297Z,83.38
2023-02-19T22:26:27.851Z,81.85
2023-02-19T22:28:55.289Z,81.57
2023-02-19T22:31:24.552Z,79.97
2023-02-19T22:33:52.272Z,84.40
2023-02-19T22:36:27.931Z,80.65
2023-02-19T22:38:54.908Z,80.57
2023-02-19T22:41:22.264Z,85.10
2023-02-19T22:43:49.967Z,86.97
2023-02-19T22:46:19.966Z,88.88
2023-02-19T22:48:47.388Z,92.90
2023-02-19T22:51:16.526Z,88.78
2023-02-19T22:53:45.140Z,87.57
2023-02-19T22:56:13.275Z,86.38
2023-02-19T22:58:40.960Z,84.22
2023-02-19T23:01:08.271Z,81.70
2023-02-19T23:03:35.242Z,80.05
2023-02-19T23:06:05.355Z,81.75
2023-02-19T23:08:32.264Z,81.22
2023-02-19T23:10:59.249Z,82.85
2023-02-19T23:13:26.193Z,85.72
2023-02-19T23:15:53.116Z,82.95
2023-02-19T23:18:20.051Z,83.45
2023-02-19T23:20:46.945Z,82.60
2023-02-19T23:23:13.878Z,80.82
2023-02-19T23:25:40.818Z,83.65
2023-02-19T23:28:07.757Z,80.88
2023-02-19T23:30:34.810Z,83.68
2023-02-19T23:33:01.763Z,81.93
2023-02-19T23:35:28.807Z,84.65
2023-02-19T23:37:55.924Z,83.20
2023-02-19T23:40:23.041Z,82.15
2023-02-19T23:42:50.015Z,81.25
2023-02-19T23:45:17.191Z,81.35
2023-02-19T23:47:44.146Z,82.80
2023-02-19T23:50:11.122Z,80.80
2023-02-19T23:52:38.052Z,82.63
2023-02-19T23:55:05.334Z,86.18
2023-02-19T23:57:32.240Z,83.10
2023-02-19T23:59:59.262Z,84.95
